Latest Weather Observations for New May Downs

IDQ60801

Issued at 10:02 pm EST Wednesday 8 December 2021 (issued every 10 minutes, with the page automatically refreshed every 10 minutes)

About weather observations | Map of weather stations | Latest weather observations for QLD | Other Formats
Station Details ID: 037059 Name: NEW MAY DOWNS Lat: -20.59 Lon: 139.34 Height: 392.0 m
Data from the previous 72 hours. | See also: Recent months at New May Downs
Date/Time
EST
Temp
°C
App
Temp
°C
Dew
Point
°C
Rel
Hum
%
Delta-T
°C
Wind Press
QNH
hPa
Press
MSL
hPa
Rain since
9am
mm
Dir  Spd
km/h
Gust
km/h
Spd
kts
Gust
kts
08/10:00pm 31.6 29.3 7.3 22 13.5 SSE 9 17 5 9 - - 0.0
08/09:30pm 31.9 29.5 6.9 21 13.8 SSE 9 15 5 8 - - 0.0
08/09:00pm 32.3 29.3 7.9 22 13.7 SSE 13 17 7 9 - - 0.0
08/08:30pm 33.1 29.0 7.9 21 14.2 SSE 19 28 10 15 - - 0.0
08/08:00pm 33.9 29.4 8.5 21 14.5 SSE 22 33 12 18 - - 0.0
08/07:30pm 34.0 31.9 9.9 23 14.1 SE 11 19 6 10 - - 0.0
08/07:00pm 34.3 31.6 10.2 23 14.2 SE 15 20 8 11 - - 0.0
08/06:30pm 34.9 32.5 10.0 22 14.6 SSE 13 19 7 10 - - 0.0
08/06:00pm 34.9 32.5 10.0 22 14.6 S 13 19 7 10 - - 0.0
08/05:30pm 35.0 32.4 10.8 23 14.4 S 15 24 8 13 - - 0.0
08/05:00pm 35.1 33.1 10.2 22 14.7 SSW 11 19 6 10 - - 0.0
08/04:30pm 35.3 34.3 10.4 22 14.7 SE 6 15 3 8 - - 0.0
08/04:00pm 35.5 33.6 10.5 22 14.8 SSW 11 20 6 11 - - 0.0
08/03:30pm 35.9 34.9 10.9 22 14.9 ESE 7 13 4 7 - - 0.0
08/03:00pm 35.6 34.1 10.6 22 14.9 SSE 9 15 5 8 - - 0.0
08/02:30pm 35.9 34.7 12.8 25 14.2 SE 11 20 6 11 - - 0.0
08/02:00pm 35.8 34.2 12.7 25 14.2 ENE 13 22 7 12 - - 0.0
08/01:30pm 35.2 34.4 12.8 26 13.7 E 9 19 5 10 - - 0.0
08/01:00pm 36.7 35.7 13.5 25 14.4 ENE 11 19 6 10 - - 0.0
08/12:30pm 35.2 33.2 12.8 26 13.7 ENE 15 24 8 13 - - 0.0
08/12:00pm 35.0 33.4 13.8 28 13.2 ENE 15 22 8 12 - - 0.0
08/11:30am 34.7 33.0 13.5 28 13.1 E 15 22 8 12 - - 0.0
08/11:00am 34.2 32.5 13.6 28 12.7 E 15 24 8 13 - - 0.0
08/10:30am 33.2 31.7 14.3 32 11.8 E 15 22 8 12 - - 0.0
08/10:00am 32.9 31.7 14.0 32 11.7 ENE 13 22 7 12 - - 0.0
08/09:30am 32.3 30.8 13.0 31 11.7 E 13 20 7 11 - - 0.0
08/09:00am 31.8 29.7 11.0 28 12.2 ESE 13 20 7 11 - - 0.0
08/08:30am 30.3 28.0 10.3 29 11.6 ESE 13 19 7 10 - - 0.0
08/08:00am 29.9 27.7 10.9 31 11.1 SE 13 20 7 11 - - 0.0
08/07:30am 29.6 27.8 12.1 34 10.4 SE 13 20 7 11 - - 0.0
08/07:00am 28.7 28.6 14.9 43 8.5 ESE 9 15 5 8 - - 0.0
08/06:30am 27.7 27.4 15.4 47 7.6 ESE 11 17 6 9 - - 0.0
08/06:00am 27.3 27.5 15.7 49 7.2 SE 9 15 5 8 - - 0.0
08/05:30am 27.6 26.6 15.6 48 7.5 SE 15 20 8 11 - - 0.0
08/05:00am 27.6 28.7 16.6 51 6.9 S 6 7 3 4 - - 0.0
08/04:30am 27.3 28.3 16.3 51 6.9 SSW 6 9 3 5 - - 0.0
08/04:00am 27.6 28.4 15.9 49 7.3 SSW 6 7 3 4 - - 0.0
08/03:30am 27.6 29.3 15.3 47 7.6 CALM 0 2 0 1 - - 0.0
08/03:00am 27.7 29.1 15.4 47 7.6 NE 2 4 1 2 - - 0.0
08/02:30am 27.7 28.4 15.7 48 7.5 ENE 6 9 3 5 - - 0.0
08/02:00am 27.9 29.1 15.9 48 7.5 SSE 4 4 2 2 - - 0.0
08/01:30am 27.4 28.4 15.4 48 7.4 ESE 4 6 2 3 - - 0.0
08/01:00am 28.8 29.9 15.7 45 8.2 S 4 6 2 3 - - 0.0
08/12:30am 29.0 30.1 15.5 44 8.4 SSW 4 6 2 3 - - 0.0
08/12:00am 29.1 29.7 15.2 42 8.6 SSE 6 9 3 5 - - 0.0
 
Date/Time
EST
Temp
°C
App
Temp
°C
Dew
Point
°C
Rel
Hum
%
Delta-T
°C
Wind Press
QNH
hPa
Press
MSL
hPa
Rain since
9am
mm
Dir  Spd
km/h
Gust
km/h
Spd
kts
Gust
kts
07/11:30pm 29.3 29.7 14.7 41 9.0 SSE 6 7 3 4 - - 0.0
07/11:00pm 29.7 30.1 14.7 40 9.3 SE 6 9 3 5 - - 0.0
07/10:30pm 29.9 30.0 14.4 38 9.5 SE 7 11 4 6 - - 0.0
07/10:00pm 30.1 30.0 13.8 37 9.9 SE 7 9 4 5 - - 0.0
07/09:30pm 30.9 30.7 13.7 35 10.5 SSW 7 9 4 5 - - 0.0
07/09:00pm 31.2 31.2 13.5 34 10.8 SW 6 7 3 4 - - 0.0
07/08:30pm 31.6 31.5 13.8 33 10.9 SSW 7 11 4 6 - - 0.0
07/08:00pm 31.9 31.5 14.1 34 11.0 SW 9 13 5 7 - - 0.0
07/07:30pm 32.2 31.8 12.9 31 11.7 WSW 7 11 4 6 - - 0.0
07/07:00pm 32.8 32.0 12.9 29 12.1 SW 9 13 5 7 - - 0.0
07/06:30pm 33.2 32.2 13.3 30 12.2 WSW 11 15 6 8 - - 0.0
07/06:00pm 34.1 32.2 13.0 28 12.9 SSW 15 22 8 12 - - 0.0
07/05:30pm 34.8 33.5 13.6 28 13.1 SW 13 22 7 12 - - 0.0
07/05:00pm 34.6 34.0 13.4 27 13.1 WSW 9 17 5 9 - - 0.0
07/04:30pm 35.1 34.4 14.4 29 13.0 SSW 11 17 6 9 - - 0.0
07/04:00pm 34.6 32.4 13.4 27 13.1 WSW 17 28 9 15 - - 0.0
07/03:30pm 35.0 34.7 14.3 29 13.0 WSW 9 24 5 13 - - 0.0
07/03:00pm 33.9 33.9 12.3 27 13.1 SW 4 11 2 6 - - 0.0
07/02:30pm 34.5 32.7 12.2 26 13.5 W 13 22 7 12 - - 0.0
07/02:00pm 34.8 33.3 11.9 25 13.8 WSW 11 19 6 10 - - 0.0
07/01:30pm 33.4 31.5 11.9 27 12.9 W 13 22 7 12 - - 0.0
07/01:00pm 34.0 33.4 13.5 29 12.6 W 9 22 5 12 - - 0.0
07/12:30pm 32.5 31.3 12.7 30 12.0 WNW 11 20 6 11 - - 0.0
07/12:00pm 32.8 30.6 13.4 30 11.9 WNW 17 26 9 14 - - 0.0
07/11:30am 31.8 30.6 14.0 34 11.0 NNW 13 26 7 14 - - 0.0
07/11:00am 30.8 30.8 15.2 38 9.7 NE 9 15 5 8 - - 0.0
07/10:30am 30.1 30.3 15.8 42 9.0 NE 9 17 5 9 - - 0.0
07/10:00am 28.7 29.3 15.9 45 8.0 NNE 7 13 4 7 - - 0.0
07/09:30am 27.6 28.4 15.9 49 7.3 E 6 9 3 5 - - 0.0
07/09:00am 26.0 27.3 17.1 58 5.6 SE 6 9 3 5 - - 0.8
07/08:30am 24.9 26.1 17.4 63 4.7 E 7 9 4 5 - - 0.8
07/08:00am 24.8 25.9 17.0 62 4.9 E 7 13 4 7 - - 0.8
07/07:30am 24.0 25.3 17.5 67 4.1 ENE 7 9 4 5 - - 0.8
07/07:00am 23.5 24.8 17.5 69 3.8 NE 7 11 4 6 - - 0.8
07/06:30am 23.1 24.5 17.3 70 3.6 ENE 6 7 3 4 - - 0.8
07/06:00am 23.1 24.4 17.6 71 3.5 ENE 7 9 4 5 - - 0.8
07/05:30am 22.9 24.3 17.4 71 3.5 NE 6 11 3 6 - - 0.8
07/05:00am 22.9 23.5 17.6 72 3.3 N 11 19 6 10 - - 0.8
07/04:30am 22.4 22.9 17.5 74 3.1 NE 11 19 6 10 - - 0.8
07/04:00am 22.6 24.0 17.7 74 3.1 E 7 17 4 9 - - 0.8
07/03:30am 22.6 23.8 18.2 76 2.8 SE 9 17 5 9 - - 0.8
07/03:00am 22.8 24.3 19.0 79 2.4 SSE 9 17 5 9 - - 0.8
07/02:30am 22.7 24.3 19.1 80 2.3 SE 9 17 5 9 - - 0.8
07/02:00am 23.1 24.6 19.7 81 2.2 S 11 22 6 12 - - 0.6
07/01:30am 22.7 24.7 20.0 85 1.8 E 9 11 5 6 - - 0.6
07/01:00am 23.1 25.7 19.3 79 2.5 SE 4 7 2 4 - - 0.2
07/12:30am 23.1 25.3 19.1 78 2.6 WSW 6 11 3 6 - - 0.2
07/12:00am 22.9 25.3 18.9 78 2.6 ESE 4 7 2 4 - - 0.0
 
Date/Time
EST
Temp
°C
App
Temp
°C
Dew
Point
°C
Rel
Hum
%
Delta-T
°C
Wind Press
QNH
hPa
Press
MSL
hPa
Rain since
9am
mm
Dir  Spd
km/h
Gust
km/h
Spd
kts
Gust
kts
06/11:30pm 22.8 23.5 19.6 82 2.1 SW 15 26 8 14 - - 0.0
06/11:00pm 23.1 21.8 19.1 78 2.6 SW 24 41 13 22 - - 0.0
06/10:30pm 25.6 25.0 17.5 61 5.1 SSW 17 24 9 13 - - 0.0
06/10:00pm 27.3 27.2 16.0 50 7.1 SSW 11 15 6 8 - - 0.0
06/09:30pm 28.6 28.6 13.7 40 9.0 SSW 6 22 3 12 - - 0.0
06/09:00pm 28.2 28.4 12.9 38 9.1 ESE 4 7 2 4 - - 0.0
06/08:30pm 27.5 25.4 15.2 47 7.6 ESE 20 30 11 16 - - 0.0
06/08:17pm 27.1 24.1 16.7 53 6.6 SE 28 46 15 25 - - 0.0
06/08:10pm 27.6 25.7 16.6 51 6.9 SE 22 46 12 25 - - 0.0
06/08:00pm 28.1 27.1 15.7 46 7.7 SE 15 20 8 11 - - 0.0
06/07:30pm 28.3 27.0 14.9 44 8.3 SE 15 30 8 16 - - 0.0
06/07:00pm 31.8 32.0 15.7 37 10.2 NNE 9 15 5 8 - - 0.0
06/06:30pm 32.5 32.4 15.9 36 10.5 NNE 11 17 6 9 - - 0.0
06/06:00pm 33.1 32.6 16.0 35 10.9 NNE 13 22 7 12 - - 0.0
06/05:30pm 33.8 33.0 16.2 35 11.3 NE 15 24 8 13 - - 0.0
06/05:00pm 33.9 34.0 15.4 33 11.7 NE 9 17 5 9 - - 0.0
06/04:30pm 34.2 34.7 15.6 32 11.8 NW 7 17 4 9 - - 0.0
06/04:00pm 34.8 34.4 15.2 31 12.4 NNE 11 19 6 10 - - 0.0
06/03:30pm 33.9 33.6 15.4 33 11.7 NNE 11 20 6 11 - - 0.0
06/03:00pm 34.1 34.1 15.1 32 12.0 NNE 9 17 5 9 - - 0.0
06/02:30pm 33.6 33.2 15.1 33 11.7 NE 11 20 6 11 - - 0.0
06/02:00pm 34.2 33.0 15.1 31 12.1 NE 15 26 8 14 - - 0.0
06/01:30pm 33.2 31.0 14.3 32 11.8 NNE 19 28 10 15 - - 0.0
06/01:00pm 32.9 30.7 15.0 34 11.2 NNE 20 35 11 19 - - 0.0
06/12:30pm 31.9 30.1 15.4 37 10.4 NE 19 28 10 15 - - 0.0
06/12:00pm 30.7 29.1 15.9 40 9.3 NE 19 30 10 16 - - 0.0
06/11:30am 29.4 27.5 16.6 46 8.1 NE 22 32 12 17 - - 0.0
06/11:00am 27.8 25.4 16.4 50 7.2 ENE 24 33 13 18 - - 0.0
06/10:30am 27.3 24.3 16.9 53 6.6 ENE 28 39 15 21 - - 0.0
06/10:00am 26.9 25.0 16.8 54 6.4 ENE 22 41 12 22 - - 0.0
06/09:30am 26.5 24.0 17.0 56 6.0 ENE 26 37 14 20 - - 0.0
06/09:00am 25.6 22.9 17.5 61 5.1 ENE 28 39 15 21 - - 0.0
06/08:30am 25.3 22.0 17.0 60 5.2 ENE 30 43 16 23 - - 0.0
06/08:00am 25.4 22.6 17.3 61 5.1 ENE 28 39 15 21 - - 0.0
06/07:30am 24.3 22.6 17.1 64 4.5 NE 22 35 12 19 - - 0.0
06/07:00am 24.1 23.2 16.9 64 4.5 NE 17 24 9 13 - - 0.0
06/06:30am 24.0 22.6 17.0 65 4.4 NE 20 33 11 18 - - 0.0
06/06:00am 24.3 23.4 16.8 63 4.7 NE 17 26 9 14 - - 0.0
06/05:30am 24.6 24.0 16.6 61 5.0 NE 15 24 8 13 - - 0.0
06/05:00am 24.7 24.8 17.4 64 4.6 NE 13 19 7 10 - - 0.0
06/04:30am 24.6 25.6 17.8 66 4.3 NE 9 17 5 9 - - 0.0
06/04:00am 24.4 25.5 18.1 68 4.0 ENE 9 13 5 7 - - 0.0
06/03:30am 24.4 24.6 17.6 66 4.3 E 13 20 7 11 - - 0.0
06/03:00am 24.5 24.3 17.7 66 4.3 ENE 15 19 8 10 - - 0.0
06/02:30am 24.5 25.4 18.4 69 3.9 ENE 11 15 6 8 - - 0.0
06/02:00am 24.6 26.2 18.3 68 4.0 NNE 7 9 4 5 - - 0.0
06/01:30am 25.3 26.3 17.7 62 4.8 NE 9 13 5 7 - - 0.0
06/01:00am 25.9 26.8 17.5 59 5.3 NNE 9 13 5 7 - - 0.0
06/12:30am 25.9 26.8 16.7 57 5.8 ESE 7 13 4 7 - - 0.0
06/12:00am 25.8 25.1 17.4 59 5.3 SE 17 24 9 13 - - 0.0
 
Date/Time
EST
Temp
°C
App
Temp
°C
Dew
Point
°C
Rel
Hum
%
Delta-T
°C
Wind Press
QNH
hPa
Press
MSL
hPa
Rain since
9am
mm
Dir  Spd
km/h
Gust
km/h
Spd
kts
Gust
kts
05/11:30pm 26.2 24.7 16.7 56 6.0 SE 20 32 11 17 - - 0.0
05/11:00pm 27.3 26.7 16.6 52 6.7 SSE 15 24 8 13 - - 0.0
05/10:30pm 27.4 27.7 16.1 50 7.1 SSE 9 17 5 9 - - 0.0

Other formats

Comma delimited format used in spreadsheet applications
http://www.bom.gov.au/fwo/IDQ60801/IDQ60801.94349.axf

JavaScript Object Notation format (JSON) in row-major order
http://www.bom.gov.au/fwo/IDQ60801/IDQ60801.94349.json

Data quality

Most of these data are generated automatically and are frequently updated. Quality checks on data are not normally performed. It is possible for incorrect values to appear. Refer to information at About Latest Weather Observations and please check the disclaimer before using these data.